createdAt,value
2019-04-14T00:02:05.973Z,12.40
2019-04-14T00:04:35.523Z,12.40
2019-04-14T00:07:03.591Z,12.50
2019-04-14T00:09:31.594Z,12.60
2019-04-14T00:11:59.088Z,12.70
2019-04-14T00:14:27.118Z,12.80
2019-04-14T00:16:55.270Z,12.80
2019-04-14T00:19:22.214Z,12.70
2019-04-14T00:21:50.050Z,12.80
2019-04-14T00:24:18.343Z,12.70
2019-04-14T00:26:46.619Z,12.80
2019-04-14T00:29:13.550Z,12.80
2019-04-14T00:31:41.195Z,12.80
2019-04-14T00:34:22.441Z,12.90
2019-04-14T00:37:01.183Z,12.90
2019-04-14T00:39:33.647Z,12.90
2019-04-14T00:42:17.524Z,12.90
2019-04-14T00:44:47.274Z,12.80
2019-04-14T00:47:33.861Z,12.80
2019-04-14T00:50:01.665Z,12.80
2019-04-14T00:52:29.669Z,12.90
2019-04-14T00:54:56.835Z,12.90
2019-04-14T00:57:24.726Z,12.90
2019-04-14T00:59:53.058Z,12.30
2019-04-14T01:02:20.998Z,12.30
2019-04-14T01:04:49.111Z,12.50
2019-04-14T01:07:17.335Z,12.40
2019-04-14T01:09:44.516Z,12.50
2019-04-14T01:12:12.721Z,12.50
2019-04-14T01:14:40.887Z,12.50
2019-04-14T01:17:08.986Z,12.60
2019-04-14T01:19:37.101Z,12.60
2019-04-14T01:22:05.227Z,12.50
2019-04-14T01:24:33.564Z,12.50
2019-04-14T01:27:01.719Z,12.60
2019-04-14T01:29:29.679Z,12.70
2019-04-14T01:31:57.859Z,12.80
2019-04-14T01:34:25.992Z,12.80
2019-04-14T01:36:54.019Z,12.90
2019-04-14T01:39:22.178Z,13.00
2019-04-14T01:41:49.964Z,13.10
2019-04-14T01:44:17.779Z,13.20
2019-04-14T01:46:45.576Z,13.20
2019-04-14T01:49:13.650Z,13.30
2019-04-14T01:51:44.210Z,13.30
2019-04-14T01:54:30.242Z,13.40
2019-04-14T01:57:15.672Z,13.50
2019-04-14T01:59:43.801Z,13.40
2019-04-14T02:02:12.498Z,13.30
2019-04-14T02:04:39.873Z,13.30
2019-04-14T02:07:08.016Z,13.10
2019-04-14T02:09:35.768Z,13.00
2019-04-14T02:12:03.852Z,12.90
2019-04-14T02:14:32.184Z,13.00
2019-04-14T02:17:02.225Z,13.00
2019-04-14T02:19:28.478Z,13.10
2019-04-14T02:21:56.358Z,13.10
2019-04-14T02:24:24.218Z,13.10
2019-04-14T02:26:52.513Z,13.10
2019-04-14T02:29:21.068Z,13.10
2019-04-14T02:32:18.498Z,12.90
2019-04-14T02:34:57.423Z,12.90
2019-04-14T02:37:24.329Z,12.90
2019-04-14T02:39:48.224Z,12.90
2019-04-14T02:42:17.927Z,13.10
2019-04-14T02:44:44.327Z,13.00
2019-04-14T02:47:18.167Z,12.80
2019-04-14T02:49:44.004Z,12.80
2019-04-14T02:52:04.949Z,12.70
2019-04-14T02:54:44.963Z,12.80
2019-04-14T02:57:01.837Z,12.80
2019-04-14T02:59:30.421Z,13.00
2019-04-14T03:02:20.188Z,13.00
2019-04-14T03:04:26.096Z,13.10
2019-04-14T03:06:56.389Z,13.10
2019-04-14T03:11:51.905Z,12.70
2019-04-14T03:19:41.155Z,12.60
2019-04-14T03:22:25.539Z,12.70
2019-04-14T03:24:37.573Z,12.70
2019-04-14T03:27:22.387Z,12.70
2019-04-14T03:29:49.845Z,12.70
2019-04-14T03:32:41.859Z,12.60
2019-04-14T03:35:19.867Z,12.60
2019-04-14T03:42:19.854Z,12.70
2019-04-14T03:44:56.400Z,12.70
2019-04-14T03:47:16.549Z,12.40
2019-04-14T03:49:45.096Z,12.40
2019-04-14T03:52:02.459Z,12.40
2019-04-14T03:54:34.974Z,12.50
2019-04-14T03:56:49.248Z,12.60
2019-04-14T03:59:17.554Z,12.50
2019-04-14T04:01:45.702Z,12.40
2019-04-14T04:04:14.053Z,12.40
2019-04-14T04:06:42.052Z,12.50
2019-04-14T04:09:10.355Z,12.50
2019-04-14T04:11:37.434Z,12.50
2019-04-14T04:14:05.238Z,12.50
2019-04-14T04:16:39.775Z,12.50
2019-04-14T04:19:13.955Z,12.60
2019-04-14T04:21:44.543Z,12.60
2019-04-14T04:24:13.117Z,12.50
2019-04-14T04:26:42.857Z,12.50
2019-04-14T04:29:11.619Z,12.50
2019-04-14T04:31:46.187Z,12.40
2019-04-14T04:34:20.864Z,12.00
2019-04-14T04:37:08.314Z,11.80
2019-04-14T04:39:41.173Z,11.80
2019-04-14T04:42:09.128Z,11.80
2019-04-14T04:44:35.996Z,11.80
2019-04-14T04:47:03.533Z,11.80
2019-04-14T04:49:31.273Z,11.90
2019-04-14T04:51:59.666Z,11.80
2019-04-14T04:54:27.922Z,11.80
2019-04-14T04:56:55.860Z,11.80
2019-04-14T04:59:23.445Z,11.60
2019-04-14T05:01:51.548Z,11.60
2019-04-14T05:04:19.604Z,11.60
2019-04-14T05:06:59.281Z,11.70
2019-04-14T05:09:27.501Z,11.60
2019-04-14T05:12:13.209Z,11.60
2019-04-14T05:14:41.226Z,11.40
2019-04-14T05:17:08.241Z,11.40
2019-04-14T05:19:38.597Z,11.40
2019-04-14T05:22:04.834Z,11.40
2019-04-14T05:24:31.772Z,11.40
2019-04-14T05:26:59.266Z,11.40
2019-04-14T05:29:27.488Z,11.40
2019-04-14T05:31:55.430Z,11.30
2019-04-14T05:34:22.530Z,11.40
2019-04-14T05:36:50.016Z,11.30
2019-04-14T05:39:17.786Z,11.30
2019-04-14T05:41:56.742Z,11.10
2019-04-14T05:44:14.249Z,11.10
2019-04-14T05:46:41.070Z,11.10
2019-04-14T05:49:08.607Z,11.00
2019-04-14T05:51:35.712Z,11.00
2019-04-14T05:54:03.410Z,10.90
2019-04-14T05:56:30.306Z,10.10
2019-04-14T05:58:57.983Z,11.00
2019-04-14T06:01:24.985Z,11.10
2019-04-14T06:03:51.851Z,11.00
2019-04-14T06:06:18.704Z,11.00
2019-04-14T06:08:45.493Z,11.00
2019-04-14T06:11:12.588Z,11.00
2019-04-14T06:13:39.407Z,11.10
2019-04-14T06:16:06.183Z,11.20
2019-04-14T06:18:33.059Z,11.20
2019-04-14T06:20:59.863Z,11.20
2019-04-14T06:23:26.636Z,11.30
2019-04-14T06:25:53.681Z,11.30
2019-04-14T06:28:20.484Z,11.40
2019-04-14T06:31:02.588Z,11.40
2019-04-14T06:33:31.219Z,11.60
2019-04-14T06:35:57.909Z,11.70
2019-04-14T06:38:27.073Z,11.80
2019-04-14T06:40:58.491Z,11.80
2019-04-14T06:43:25.271Z,11.90
2019-04-14T06:45:52.089Z,12.00
2019-04-14T06:48:18.874Z,12.10
2019-04-14T06:50:46.549Z,12.00
2019-04-14T06:53:14.189Z,12.10
2019-04-14T06:55:40.979Z,12.10
2019-04-14T06:58:07.762Z,12.20
2019-04-14T07:00:34.820Z,12.30
2019-04-14T07:03:01.615Z,12.30
2019-04-14T07:05:28.449Z,12.40
2019-04-14T07:07:57.194Z,12.40
2019-04-14T07:10:23.960Z,12.40
2019-04-14T07:12:50.748Z,12.40
2019-04-14T07:15:17.702Z,12.60
2019-04-14T07:17:44.385Z,12.50
2019-04-14T07:20:11.443Z,12.40
2019-04-14T07:22:38.278Z,12.50
2019-04-14T07:25:05.278Z,12.40
2019-04-14T07:27:32.081Z,12.40
2019-04-14T07:30:03.554Z,12.40
2019-04-14T07:32:50.249Z,12.40
2019-04-14T07:35:35.479Z,12.20
2019-04-14T07:38:04.092Z,12.30
2019-04-14T07:40:49.288Z,12.20
2019-04-14T07:43:20.418Z,12.30
2019-04-14T07:45:50.516Z,12.30
2019-04-14T07:48:22.166Z,12.30
2019-04-14T07:50:54.441Z,12.40
2019-04-14T07:53:41.769Z,12.50
2019-04-14T07:56:20.676Z,12.50
2019-04-14T07:59:06.002Z,12.60
2019-04-14T08:01:50.922Z,12.70
2019-04-14T08:04:19.573Z,12.70
2019-04-14T08:06:48.162Z,13.00
2019-04-14T08:09:14.949Z,13.20
2019-04-14T08:11:42.103Z,13.20
2019-04-14T08:14:08.939Z,13.20
2019-04-14T08:16:35.628Z,13.30
2019-04-14T08:19:02.461Z,13.40
2019-04-14T08:21:29.305Z,13.60
2019-04-14T08:23:56.076Z,13.60
2019-04-14T08:26:22.945Z,13.80
2019-04-14T08:28:49.767Z,14.00
2019-04-14T08:31:16.540Z,14.00
2019-04-14T08:33:43.488Z,14.20
2019-04-14T08:36:10.291Z,14.30
2019-04-14T08:38:37.298Z,14.40
2019-04-14T08:41:04.092Z,14.50
2019-04-14T08:43:41.809Z,14.60
2019-04-14T08:46:15.979Z,14.80
2019-04-14T08:48:45.187Z,14.90
2019-04-14T08:51:14.096Z,15.00
2019-04-14T08:53:46.610Z,15.00
2019-04-14T08:56:18.022Z,15.00
2019-04-14T08:58:44.748Z,15.10
2019-04-14T09:01:19.496Z,15.30
2019-04-14T09:03:53.679Z,15.40
2019-04-14T09:06:39.085Z,15.40
2019-04-14T09:09:11.215Z,15.50
2019-04-14T09:11:56.896Z,15.60
2019-04-14T09:14:23.570Z,15.70
2019-04-14T09:16:50.395Z,15.80
2019-04-14T09:19:17.179Z,15.80
2019-04-14T09:21:44.017Z,15.90
2019-04-14T09:24:10.903Z,15.90
2019-04-14T09:26:37.935Z,15.90
2019-04-14T09:29:05.171Z,16.00
2019-04-14T09:31:31.967Z,15.90
2019-04-14T09:33:59.084Z,16.00
2019-04-14T09:36:25.861Z,15.90
2019-04-14T09:38:52.645Z,15.00
2019-04-14T09:41:19.679Z,16.00
2019-04-14T09:43:46.451Z,16.00
2019-04-14T09:46:13.239Z,16.10
2019-04-14T09:48:42.822Z,16.20
2019-04-14T09:51:08.799Z,16.20
2019-04-14T09:53:35.572Z,16.30
2019-04-14T09:56:02.472Z,16.30
2019-04-14T09:58:29.563Z,16.50
2019-04-14T10:00:56.342Z,16.60
2019-04-14T10:03:23.126Z,16.50
2019-04-14T10:05:49.921Z,16.60
2019-04-14T10:08:17.111Z,16.70
2019-04-14T10:10:44.044Z,16.80
2019-04-14T10:13:11.136Z,16.90
2019-04-14T10:15:37.940Z,17.00
2019-04-14T10:18:05.238Z,17.10
2019-04-14T10:20:32.020Z,17.10
2019-04-14T10:22:58.867Z,17.20
2019-04-14T10:25:25.774Z,17.30
2019-04-14T10:27:52.563Z,17.20
2019-04-14T10:30:19.367Z,17.40
2019-04-14T10:32:46.181Z,17.40
2019-04-14T10:35:12.970Z,17.40
2019-04-14T10:37:39.813Z,17.50
2019-04-14T10:40:07.505Z,17.50
2019-04-14T10:42:34.296Z,17.10
2019-04-14T10:45:01.206Z,17.60
2019-04-14T10:47:28.279Z,17.60
2019-04-14T10:49:55.112Z,17.60
2019-04-14T10:52:21.896Z,17.60
2019-04-14T10:54:48.716Z,17.70
2019-04-14T10:57:15.777Z,17.70
2019-04-14T10:59:42.903Z,17.80
2019-04-14T11:02:09.844Z,17.90
2019-04-14T11:04:36.607Z,18.00
2019-04-14T11:07:10.842Z,18.00
2019-04-14T11:09:37.644Z,18.10
2019-04-14T11:12:04.792Z,18.20
2019-04-14T11:14:31.594Z,18.30
2019-04-14T11:16:58.519Z,18.30
2019-04-14T11:19:25.335Z,18.40
2019-04-14T11:21:52.110Z,18.40
2019-04-14T11:24:18.910Z,18.60
2019-04-14T11:26:45.878Z,18.70
2019-04-14T11:29:12.687Z,18.70
2019-04-14T11:31:51.674Z,18.90
2019-04-14T11:34:20.278Z,18.90
2019-04-14T11:37:05.762Z,19.00
2019-04-14T11:39:32.627Z,19.20
2019-04-14T11:41:59.402Z,19.30
2019-04-14T11:44:26.611Z,19.50
2019-04-14T11:46:53.693Z,19.60
2019-04-14T11:49:20.544Z,19.60
2019-04-14T11:51:55.279Z,19.70
2019-04-14T11:54:16.390Z,19.80
2019-04-14T11:56:43.240Z,20.00
2019-04-14T11:59:10.506Z,20.10
2019-04-14T12:01:43.272Z,20.30
2019-04-14T12:04:14.751Z,20.40
2019-04-14T12:06:46.110Z,20.40
2019-04-14T12:09:20.835Z,20.60
2019-04-14T12:11:47.894Z,20.60
2019-04-14T12:14:14.733Z,20.60
2019-04-14T12:16:41.708Z,20.70
2019-04-14T12:19:08.608Z,20.80
2019-04-14T12:21:35.520Z,21.00
2019-04-14T12:24:02.381Z,21.10
2019-04-14T12:26:29.160Z,21.10
2019-04-14T12:28:55.973Z,21.20
2019-04-14T12:31:24.218Z,21.30
2019-04-14T12:33:51.104Z,21.30
2019-04-14T12:36:18.017Z,21.30
2019-04-14T12:38:44.882Z,21.60
2019-04-14T12:41:13.868Z,21.60
2019-04-14T12:43:45.285Z,21.40
2019-04-14T12:46:14.644Z,21.50
2019-04-14T12:48:44.377Z,21.70
2019-04-14T12:51:15.978Z,21.80
2019-04-14T12:53:42.751Z,21.80
2019-04-14T12:56:10.049Z,21.70
2019-04-14T12:58:41.267Z,21.60
2019-04-14T13:01:12.584Z,21.60
2019-04-14T13:03:41.826Z,21.80
2019-04-14T13:06:08.427Z,21.90
2019-04-14T13:08:35.228Z,21.80
2019-04-14T13:11:02.142Z,21.80
2019-04-14T13:13:28.920Z,22.10
2019-04-14T13:15:55.813Z,22.10
2019-04-14T13:18:22.640Z,22.30
2019-04-14T13:20:49.428Z,22.50
2019-04-14T13:23:16.375Z,22.90
2019-04-14T13:25:43.165Z,22.70
2019-04-14T13:28:09.948Z,22.20
2019-04-14T13:30:38.677Z,22.50
2019-04-14T13:33:05.538Z,23.00
2019-04-14T13:35:32.320Z,23.70
2019-04-14T13:37:59.138Z,24.10
2019-04-14T13:40:25.968Z,24.50
2019-04-14T13:42:52.684Z,24.00
2019-04-14T13:45:19.792Z,24.00
2019-04-14T13:47:46.908Z,24.50
2019-04-14T13:50:13.693Z,24.30
2019-04-14T13:52:46.746Z,24.40
2019-04-14T13:55:09.549Z,25.10
2019-04-14T13:57:36.347Z,25.50
2019-04-14T14:00:08.845Z,25.60
2019-04-14T14:02:35.710Z,26.30
2019-04-14T14:05:03.652Z,26.60
2019-04-14T14:07:31.258Z,26.90
2019-04-14T14:09:58.057Z,27.40
2019-04-14T14:12:35.660Z,27.40
2019-04-14T14:15:24.593Z,27.50
2019-04-14T14:17:53.227Z,26.80
2019-04-14T14:20:31.217Z,26.40
2019-04-14T14:23:06.804Z,27.20
2019-04-14T14:25:41.468Z,27.50
2019-04-14T14:28:08.244Z,28.10
2019-04-14T14:30:35.074Z,26.70
2019-04-14T14:33:02.301Z,26.80
2019-04-14T14:35:28.855Z,26.20
2019-04-14T14:37:55.944Z,26.60
2019-04-14T14:40:22.745Z,27.30
2019-04-14T14:42:49.725Z,27.00
2019-04-14T14:45:16.553Z,27.20
2019-04-14T14:47:45.133Z,27.80
2019-04-14T14:50:31.003Z,28.00
2019-04-14T14:52:58.261Z,27.50
2019-04-14T14:55:25.059Z,26.30
2019-04-14T14:57:51.860Z,26.70
2019-04-14T15:00:23.479Z,26.40
2019-04-14T15:02:50.263Z,27.20
2019-04-14T15:05:17.196Z,26.00
2019-04-14T15:07:44.480Z,25.50
2019-04-14T15:10:11.313Z,26.00
2019-04-14T15:12:38.154Z,26.50
2019-04-14T15:15:06.155Z,26.40
2019-04-14T15:17:32.963Z,26.20
2019-04-14T15:19:59.764Z,26.70
2019-04-14T15:22:26.556Z,27.10
2019-04-14T15:24:53.367Z,27.30
2019-04-14T15:27:20.172Z,27.70
2019-04-14T15:29:47.023Z,26.00
2019-04-14T15:32:13.809Z,26.30
2019-04-14T15:34:40.829Z,26.60
2019-04-14T15:37:07.644Z,27.40
2019-04-14T15:39:37.396Z,27.80
2019-04-14T15:42:03.306Z,27.80
2019-04-14T15:44:30.079Z,27.20
2019-04-14T15:46:56.881Z,27.50
2019-04-14T15:49:23.711Z,27.10
2019-04-14T15:51:50.406Z,26.50
2019-04-14T15:54:17.215Z,26.50
2019-04-14T15:57:02.016Z,27.40
2019-04-14T15:59:42.632Z,27.20
2019-04-14T16:02:23.356Z,26.20
2019-04-14T16:05:00.821Z,25.80
2019-04-14T16:07:46.291Z,26.00
2019-04-14T16:10:15.320Z,25.90
2019-04-14T16:12:46.956Z,26.50
2019-04-14T16:15:15.952Z,26.60
2019-04-14T16:17:44.570Z,26.70
2019-04-14T16:20:21.981Z,26.80
2019-04-14T16:22:48.790Z,26.00
2019-04-14T16:25:15.603Z,25.30
2019-04-14T16:27:49.980Z,26.00
2019-04-14T16:30:24.357Z,26.00
2019-04-14T16:33:11.133Z,25.50
2019-04-14T16:35:39.322Z,25.50
2019-04-14T16:38:06.113Z,25.50
2019-04-14T16:40:35.083Z,25.40
2019-04-14T16:43:01.899Z,25.50
2019-04-14T16:45:28.711Z,24.40
2019-04-14T16:47:55.522Z,24.20
2019-04-14T16:50:22.301Z,23.90
2019-04-14T16:53:06.178Z,24.20
2019-04-14T16:55:51.675Z,24.80
2019-04-14T16:58:32.093Z,24.60
2019-04-14T17:01:00.709Z,24.50
2019-04-14T17:03:27.999Z,24.20
2019-04-14T17:05:54.880Z,24.80
2019-04-14T17:08:21.772Z,24.80
2019-04-14T17:10:48.908Z,24.30
2019-04-14T17:13:16.882Z,24.50
2019-04-14T17:15:45.705Z,24.30
2019-04-14T17:18:32.476Z,24.10
2019-04-14T17:21:08.357Z,23.70
2019-04-14T17:23:40.530Z,23.30
2019-04-14T17:26:25.670Z,23.10
2019-04-14T17:28:57.015Z,23.40
2019-04-14T17:31:25.652Z,23.80
2019-04-14T17:33:54.354Z,23.70
2019-04-14T17:36:35.033Z,23.50
2019-04-14T17:39:12.356Z,22.90
2019-04-14T17:41:41.061Z,22.90
2019-04-14T17:44:15.428Z,22.50
2019-04-14T17:46:47.276Z,22.30
2019-04-14T17:49:22.864Z,22.60
2019-04-14T17:51:51.441Z,22.30
2019-04-14T17:54:29.134Z,22.10
2019-04-14T17:56:58.794Z,21.90
2019-04-14T17:59:27.493Z,21.80
2019-04-14T18:02:05.085Z,21.80
2019-04-14T18:04:36.677Z,22.00
2019-04-14T18:07:08.289Z,22.00
2019-04-14T18:09:51.604Z,21.90
2019-04-14T18:12:26.434Z,21.90
2019-04-14T18:15:11.891Z,21.70
2019-04-14T18:17:42.006Z,21.60
2019-04-14T18:20:14.255Z,21.60
2019-04-14T18:22:41.047Z,21.40
2019-04-14T18:25:08.476Z,21.20
2019-04-14T18:27:37.096Z,21.20
2019-04-14T18:30:11.253Z,21.00
2019-04-14T18:32:48.962Z,21.00
2019-04-14T18:35:17.698Z,20.80
2019-04-14T18:37:46.321Z,20.40
2019-04-14T18:40:17.649Z,20.60
2019-04-14T18:42:59.440Z,20.50
2019-04-14T18:45:42.780Z,20.40
2019-04-14T18:48:19.965Z,20.40
2019-04-14T18:50:48.581Z,20.50
2019-04-14T18:53:33.937Z,20.30
2019-04-14T18:56:00.622Z,20.10
2019-04-14T18:58:46.183Z,20.00
2019-04-14T19:01:17.786Z,19.90
2019-04-14T19:03:44.604Z,19.90
2019-04-14T19:06:11.512Z,19.60
2019-04-14T19:08:38.344Z,19.50
2019-04-14T19:11:10.798Z,19.70
2019-04-14T19:13:39.327Z,19.70
2019-04-14T19:16:06.117Z,19.70
2019-04-14T19:18:34.973Z,19.70
2019-04-14T19:21:03.793Z,19.70
2019-04-14T19:23:30.654Z,19.70
2019-04-14T19:25:57.618Z,19.60
2019-04-14T19:28:24.848Z,19.40
2019-04-14T19:30:51.639Z,19.40
2019-04-14T19:33:18.736Z,19.40
2019-04-14T19:35:45.566Z,19.30
2019-04-14T19:38:12.370Z,19.30
2019-04-14T19:40:39.188Z,19.40
2019-04-14T19:43:06.096Z,19.10
2019-04-14T19:45:33.128Z,19.10
2019-04-14T19:47:59.923Z,19.00
2019-04-14T19:50:26.848Z,19.00
2019-04-14T19:52:55.128Z,18.90
2019-04-14T19:55:22.006Z,18.90
2019-04-14T19:57:48.836Z,18.80
2019-04-14T20:00:15.985Z,18.50
2019-04-14T20:02:42.806Z,18.90
2019-04-14T20:05:09.937Z,18.90
2019-04-14T20:07:36.746Z,19.00
2019-04-14T20:10:06.171Z,19.00
2019-04-14T20:12:33.012Z,19.00
2019-04-14T20:14:59.791Z,18.90
2019-04-14T20:17:31.031Z,18.70
2019-04-14T20:20:05.893Z,18.60
2019-04-14T20:22:32.942Z,18.40
2019-04-14T20:25:02.531Z,18.40
2019-04-14T20:27:47.929Z,18.40
2019-04-14T20:30:19.263Z,18.20
2019-04-14T20:32:46.034Z,18.20
2019-04-14T20:35:13.851Z,18.30
2019-04-14T20:37:41.034Z,18.40
2019-04-14T20:40:08.456Z,18.30
2019-04-14T20:42:35.323Z,18.30
2019-04-14T20:45:05.244Z,18.30
2019-04-14T20:47:32.163Z,18.30
2019-04-14T20:49:59.292Z,18.20
2019-04-14T20:52:26.125Z,18.10
2019-04-14T20:54:53.064Z,18.00
2019-04-14T20:57:19.940Z,18.00
2019-04-14T20:59:46.740Z,18.00
2019-04-14T21:02:29.064Z,18.00
2019-04-14T21:04:57.654Z,18.00
2019-04-14T21:07:36.617Z,17.90
2019-04-14T21:10:17.551Z,17.90
2019-04-14T21:12:44.367Z,17.90
2019-04-14T21:15:11.344Z,17.80
2019-04-14T21:17:39.948Z,17.80
2019-04-14T21:20:15.070Z,17.90
2019-04-14T21:22:52.801Z,17.90
2019-04-14T21:25:21.621Z,17.90
2019-04-14T21:27:57.002Z,17.90
2019-04-14T21:30:32.611Z,17.80
2019-04-14T21:33:13.234Z,17.60
2019-04-14T21:35:42.221Z,17.60
2019-04-14T21:38:11.647Z,17.40
2019-04-14T21:40:40.245Z,17.30
2019-04-14T21:43:07.084Z,17.10
2019-04-14T21:45:33.900Z,17.20
2019-04-14T21:48:00.696Z,16.90
2019-04-14T21:50:29.399Z,17.10
2019-04-14T21:52:56.231Z,17.00
2019-04-14T21:55:23.027Z,17.10
2019-04-14T21:57:52.338Z,17.10
2019-04-14T22:00:44.213Z,17.10
2019-04-14T22:03:16.112Z,17.10
2019-04-14T22:05:47.574Z,17.20
2019-04-14T22:08:25.225Z,17.20
2019-04-14T22:10:56.078Z,17.20
2019-04-14T22:13:23.370Z,17.10
2019-04-14T22:15:50.579Z,17.10
2019-04-14T22:18:18.152Z,17.00
2019-04-14T22:20:44.971Z,17.00
2019-04-14T22:23:13.096Z,17.10
2019-04-14T22:25:39.903Z,17.10
2019-04-14T22:28:06.675Z,17.10
2019-04-14T22:30:33.473Z,17.10
2019-04-14T22:33:00.388Z,17.10
2019-04-14T22:35:27.460Z,17.20
2019-04-14T22:37:54.525Z,17.10
2019-04-14T22:40:21.516Z,17.10
2019-04-14T22:42:48.325Z,17.00
2019-04-14T22:45:15.752Z,17.10
2019-04-14T22:47:42.548Z,16.90
2019-04-14T22:50:10.360Z,16.90
2019-04-14T22:52:37.173Z,16.80
2019-04-14T22:55:06.753Z,16.80
2019-04-14T22:57:33.644Z,16.70
2019-04-14T23:00:00.784Z,16.80
2019-04-14T23:02:29.370Z,16.90
2019-04-14T23:04:57.977Z,16.80
2019-04-14T23:07:24.751Z,16.80
2019-04-14T23:09:53.337Z,16.80
2019-04-14T23:12:36.767Z,16.90
2019-04-14T23:15:22.309Z,16.80
2019-04-14T23:17:53.751Z,16.90
2019-04-14T23:20:25.123Z,17.10
2019-04-14T23:23:08.684Z,16.90
2019-04-14T23:25:35.482Z,16.90
2019-04-14T23:28:02.302Z,16.90
2019-04-14T23:30:29.236Z,16.90
2019-04-14T23:32:56.352Z,16.90
2019-04-14T23:35:23.125Z,16.80
2019-04-14T23:37:49.954Z,16.80
2019-04-14T23:40:16.737Z,17.00
2019-04-14T23:42:43.518Z,17.00
2019-04-14T23:45:11.035Z,17.00
2019-04-14T23:47:37.942Z,16.90
2019-04-14T23:50:07.117Z,17.00
2019-04-14T23:52:33.989Z,16.80
2019-04-14T23:55:00.804Z,16.70
2019-04-14T23:57:28.189Z,16.60
2019-04-14T23:59:55.413Z,16.50
